Time;durP1;ratioP1;P1;durP2;ratioP2;P2;SDS_P1;SDS_P2;PMS_P1;PMS_P2;Temp;Humidity;BMP_temperature;BMP_pressure;BME280_temperature;BME280_humidity;BME280_pressure;Samples;Min_cycle;Max_cycle;Signal;HPM_P1;HPM_P2
2022/11/09 00:00:04;;;;;;;22.10;10.27;;;;;;;5.83;76.46;99738.34;6084654;23;20036;-83
2022/11/09 00:02:55;;;;;;;20.98;10.18;;;;;;;5.83;76.85;99738.34;6078353;23;20625;-83
2022/11/09 00:06:17;;;;;;;;;;;;;;;;;;;;;
2022/11/09 00:09:33;;;;;;;24.55;10.82;;;;;;;6.57;76.51;99847.53;5992213;23;20052;-86
2022/11/09 00:12:14;;;;;;;27.83;11.45;;;;;;;5.96;76.90;99740.19;6103199;23;20018;-84
2022/11/09 00:14:50;;;;;;;22.48;10.15;;;;;;;7.14;76.68;99948.03;6081333;23;20022;-83
2022/11/09 00:17:26;;;;;;;23.40;10.88;;;;;;;5.92;76.27;99735.81;6080487;23;20041;-83
2022/11/09 00:20:01;;;;;;;21.45;9.82;;;;;;;6.78;76.48;99870.13;6058928;23;20337;-81
2022/11/09 00:22:31;;;;;;;23.17;10.25;;;;;;;6.74;76.87;99867.47;6105973;23;20165;-84
2022/11/09 00:24:57;;;;;;;23.63;11.00;;;;;;;6.51;76.66;99831.97;6080572;23;20014;-85
2022/11/09 00:27:23;;;;;;;19.17;9.65;;;;;;;6.40;76.70;99807.75;6081863;23;20025;-84
2022/11/09 00:29:49;;;;;;;18.88;9.98;;;;;;;7.22;76.91;99942.91;6058288;23;20022;-85
2022/11/09 00:32:18;;;;;;;20.95;10.23;;;;;;;6.39;76.46;99811.19;6106858;23;20033;-85
2022/11/09 00:34:44;;;;;;;21.60;10.43;;;;;;;6.88;76.83;99878.81;6117751;23;19998;-81
2022/11/09 00:37:11;;;;;;;23.13;10.95;;;;;;;6.28;76.52;99778.41;6120299;23;20079;-82
2022/11/09 00:39:38;;;;;;;24.48;10.23;;;;;;;6.85;76.58;99867.56;6069319;23;20022;-83
2022/11/09 00:42:06;;;;;;;20.60;10.18;;;;;;;6.58;77.03;99836.34;6082922;23;20413;-83
2022/11/09 00:44:35;;;;;;;19.13;10.27;;;;;;;7.08;76.58;99896.22;6081603;23;20065;-82
2022/11/09 00:47:02;;;;;;;21.90;10.23;;;;;;;7.05;76.78;99885.84;6077446;23;20096;-83
2022/11/09 00:49:28;;;;;;;20.65;9.65;;;;;;;7.11;76.67;99901.41;6053818;23;20025;-83
2022/11/09 00:51:55;;;;;;;21.40;9.82;;;;;;;7.38;76.57;99943.88;6101979;23;20033;-81
2022/11/09 00:54:23;;;;;;;21.00;9.77;;;;;;;6.91;76.60;99863.31;6079280;23;20022;-85
2022/11/09 00:56:49;;;;;;;20.98;9.98;;;;;;;7.38;76.66;99949.91;6102523;23;20456;-83
2022/11/09 00:59:16;;;;;;;24.30;10.10;;;;;;;6.42;76.44;99791.41;6078287;23;20018;-82
2022/11/09 01:01:42;;;;;;;21.77;10.73;;;;;;;7.37;76.72;99943.00;6078128;23;20530;-83
2022/11/09 01:04:08;;;;;;;23.23;10.70;;;;;;;6.62;76.63;99813.97;6083033;23;20021;-82
2022/11/09 01:06:35;;;;;;;20.63;10.57;;;;;;;6.89;76.41;99885.72;6104348;23;20101;-83
2022/11/09 01:09:01;;;;;;;20.92;10.10;;;;;;;6.15;76.29;99751.56;6102894;23;20026;-85
2022/11/09 01:11:27;;;;;;;26.13;10.18;;;;;;;7.43;76.45;99946.47;6088860;23;20022;-83
2022/11/09 01:13:54;;;;;;;20.58;9.82;;;;;;;7.27;76.06;99919.63;6055388;23;20028;-84
2022/11/09 01:16:22;;;;;;;21.40;10.18;;;;;;;6.72;76.38;99820.94;6056117;23;20029;-85
2022/11/09 01:18:55;;;;;;;22.52;10.60;;;;;;;6.83;76.39;99835.69;6099682;23;20151;-83
2022/11/09 01:21:24;;;;;;;21.00;10.25;;;;;;;7.47;76.20;99943.91;6084368;23;20022;-82
2022/11/09 01:23:50;;;;;;;23.35;10.45;;;;;;;6.46;76.28;99777.66;6083569;23;20056;-87
2022/11/09 01:26:16;;;;;;;22.33;10.15;;;;;;;7.24;76.36;99913.56;6056477;23;20080;-83
2022/11/09 01:28:43;;;;;;;25.60;10.50;;;;;;;7.18;76.69;99892.81;6057137;23;20018;-86
2022/11/09 01:31:15;;;;;;;23.33;10.35;;;;;;;7.48;76.34;99952.56;6084026;23;20017;-84
2022/11/09 01:33:42;;;;;;;24.02;11.50;;;;;;;7.38;76.11;99929.19;6125426;23;20045;-82
2022/11/09 01:36:14;;;;;;;23.50;10.70;;;;;;;7.31;76.43;99913.63;6104028;23;20005;-84
2022/11/09 01:38:40;;;;;;;25.30;11.30;;;;;;;7.12;76.31;99879.84;6153863;23;20006;-84
2022/11/09 01:41:12;;;;;;;24.70;11.00;;;;;;;7.19;76.34;99906.63;6152127;23;20025;-86
2022/11/09 01:43:38;;;;;;;25.35;10.68;;;;;;;7.56;76.54;99943.09;6124871;23;20021;-84
2022/11/09 01:46:16;;;;;;;24.60;11.48;;;;;;;7.34;76.05;99909.31;6107360;23;20483;-88
2022/11/09 01:48:47;;;;;;;23.85;11.23;;;;;;;7.18;76.26;99873.84;6094176;23;20078;-82
2022/11/09 01:51:24;;;;;;;27.95;11.60;;;;;;;7.17;76.15;99882.47;6107695;23;20009;-82
2022/11/09 01:53:55;;;;;;;23.50;10.88;;;;;;;7.48;76.02;99927.53;6155945;23;20002;-85
2022/11/09 01:56:21;;;;;;;23.70;11.10;;;;;;;7.35;76.03;99915.38;6107383;23;20021;-83
2022/11/09 01:58:59;;;;;;;24.95;10.80;;;;;;;7.24;76.27;99898.03;6083202;23;20032;-83
2022/11/09 02:01:29;;;;;;;25.27;11.93;;;;;;;7.18;76.17;99889.38;6131203;23;20010;-84
2022/11/09 02:04:03;;;;;;;26.20;11.88;;;;;;;7.36;76.56;99917.09;6106840;23;20006;-82
2022/11/09 02:06:29;;;;;;;24.85;11.80;;;;;;;7.63;76.53;99962.13;6131630;23;20013;-81
2022/11/09 02:09:13;;;;;;;26.60;12.15;;;;;;;7.41;76.11;99925.75;6104815;23;20025;-83
2022/11/09 02:11:39;;;;;;;22.38;11.23;;;;;;;7.62;76.26;99958.69;6106101;23;20018;-81
2022/11/09 02:14:07;;;;;;;26.02;12.40;;;;;;;7.40;76.30;99918.84;6131184;23;20002;-83
2022/11/09 02:16:33;;;;;;;23.25;11.25;;;;;;;7.66;76.15;99969.91;6129484;23;20002;-82
2022/11/09 02:19:00;;;;;;;24.58;11.98;;;;;;;7.69;76.44;99972.53;6106358;23;20009;-83
2022/11/09 02:21:29;;;;;;;27.48;11.60;;;;;;;7.34;76.26;99892.94;6131517;23;20045;-81
2022/11/09 02:23:59;;;;;;;28.08;11.45;;;;;;;7.51;76.25;99942.19;6082246;23;20050;-81
2022/11/09 02:26:50;;;;;;;23.70;11.63;;;;;;;7.26;76.49;99884.25;6107183;23;20033;-82
2022/11/09 02:29:25;;;;;;;25.15;11.65;;;;;;;7.66;76.52;99952.66;6106661;23;20034;-85
2022/11/09 02:31:56;;;;;;;26.55;11.80;;;;;;;7.17;76.17;99880.72;6107076;23;20002;-82
2022/11/09 02:34:24;;;;;;;23.25;11.43;;;;;;;7.12;76.26;99877.25;6083320;23;20006;-82
2022/11/09 02:36:50;;;;;;;26.90;12.55;;;;;;;7.71;76.40;99976.00;6107189;23;20006;-81
2022/11/09 02:39:23;;;;;;;26.73;12.07;;;;;;;6.57;76.41;99782.06;6131351;23;20010;-82
2022/11/09 02:41:54;;;;;;;27.17;11.23;;;;;;;7.31;76.22;99909.28;6131172;23;20001;-84
2022/11/09 02:44:23;;;;;;;25.38;11.73;;;;;;;6.92;76.24;99843.50;6082904;23;20010;-81
2022/11/09 02:46:50;;;;;;;25.98;12.68;;;;;;;6.88;75.98;99836.56;6105040;23;20013;-82
2022/11/09 02:49:16;;;;;;;25.95;11.52;;;;;;;7.45;76.43;99937.84;6125850;23;20041;-82
2022/11/09 02:51:42;;;;;;;24.20;12.02;;;;;;;7.44;76.72;99940.44;6118132;23;20026;-83
2022/11/09 02:54:09;;;;;;;30.88;12.60;;;;;;;7.32;76.36;99923.97;6094184;23;20041;-82
2022/11/09 02:56:36;;;;;;;30.23;12.65;;;;;;;7.59;76.45;99970.75;6118514;23;20018;-82
2022/11/09 02:59:02;;;;;;;30.02;12.38;;;;;;;7.48;76.43;99962.91;6094256;23;20013;-81
2022/11/09 03:01:29;;;;;;;31.38;11.88;;;;;;;7.38;76.55;99934.38;6069457;23;20090;-81
2022/11/09 03:03:56;;;;;;;31.00;13.20;;;;;;;7.53;76.76;99966.38;6045839;23;20017;-81
2022/11/09 03:06:33;;;;;;;28.75;11.98;;;;;;;7.09;76.78;99897.94;6116547;23;20404;-82
2022/11/09 03:09:03;;;;;;;26.52;11.80;;;;;;;7.37;76.72;99950.75;6141643;23;20022;-83
2022/11/09 03:12:29;;;;;;;29.75;12.38;;;;;;;7.53;77.01;99958.63;6092987;23;20014;-81
2022/11/09 03:15:04;;;;;;;28.58;12.02;;;;;;;7.18;77.05;99913.50;6067412;23;20084;-81
2022/11/09 03:17:31;;;;;;;23.33;10.30;;;;;;;7.50;76.85;99962.06;6116442;23;20022;-83
2022/11/09 03:19:58;;;;;;;28.48;12.60;;;;;;;7.28;77.24;99948.13;6070054;23;20550;-82
2022/11/09 03:22:28;;;;;;;28.80;11.80;;;;;;;7.23;77.22;99929.94;6093783;23;20471;-83
2022/11/09 03:24:54;;;;;;;27.90;12.02;;;;;;;6.96;77.14;99890.94;6116116;23;20024;-82
2022/11/09 03:27:21;;;;;;;24.25;11.77;;;;;;;6.33;77.07;99773.25;6092024;23;20022;-82
2022/11/09 03:29:49;;;;;;;30.00;12.65;;;;;;;6.56;77.27;99829.44;6066702;23;20021;-82
2022/11/09 03:32:15;;;;;;;28.08;11.52;;;;;;;6.84;77.42;99869.31;6072565;23;20029;-83
2022/11/09 03:34:42;;;;;;;22.63;10.80;;;;;;;6.95;77.43;99884.06;6101713;23;20036;-80
2022/11/09 03:37:26;;;;;;;26.88;10.45;;;;;;;7.50;77.62;99987.97;6074829;23;20050;-81
2022/11/09 03:39:55;;;;;;;24.75;10.80;;;;;;;7.57;77.63;100006.13;6120754;23;20087;-81
2022/11/09 03:42:21;;;;;;;25.02;11.52;;;;;;;6.58;77.49;99831.16;6093387;23;20543;-83
2022/11/09 03:44:48;;;;;;;22.00;10.63;;;;;;;7.49;77.60;99944.78;6088988;23;20022;-81
2022/11/09 03:47:14;;;;;;;23.33;11.20;;;;;;;7.64;77.46;99974.22;6109673;23;20017;-83
2022/11/09 03:49:41;;;;;;;21.52;9.70;;;;;;;7.68;77.81;99970.78;6120147;23;20094;-81
2022/11/09 03:52:06;;;;;;;22.95;10.15;;;;;;;7.05;77.74;99881.53;6128293;23;20077;-82
2022/11/09 03:54:33;;;;;;;22.00;10.07;;;;;;;7.49;77.78;99960.31;6129280;23;20040;-82
2022/11/09 03:57:11;;;;;;;22.20;10.57;;;;;;;7.41;77.67;99930.91;6121932;23;20022;-83
2022/11/09 03:59:50;;;;;;;24.55;10.45;;;;;;;7.31;78.03;99921.38;6100343;23;20032;-81
2022/11/09 04:02:28;;;;;;;25.02;11.18;;;;;;;7.44;77.94;99935.28;6096890;23;20356;-81
2022/11/09 04:05:07;;;;;;;20.88;10.07;;;;;;;6.75;77.83;99823.56;6067765;23;20018;-84
2022/11/09 04:07:37;;;;;;;20.52;9.68;;;;;;;6.66;77.67;99778.66;6078535;23;20364;-83
2022/11/09 04:10:20;;;;;;;19.77;9.30;;;;;;;8.03;77.78;100019.38;6080510;23;20049;-83
2022/11/09 04:12:47;;;;;;;19.83;9.07;;;;;;;7.67;77.73;99950.94;6102869;23;20408;-80
2022/11/09 04:15:14;;;;;;;20.80;9.70;;;;;;;7.94;77.48;100003.75;6073064;23;20018;-84
2022/11/09 04:18:27;;;;;;;25.10;11.73;;;;;;;6.60;77.70;99788.09;6102507;23;20040;-85
2022/11/09 04:20:53;;;;;;;20.05;9.32;;;;;;;7.46;77.34;99923.19;6052990;23;20022;-83
2022/11/09 04:23:19;;;;;;;21.65;9.75;;;;;;;7.17;78.02;99888.50;6075669;23;20057;-80
2022/11/09 04:25:45;;;;;;;20.85;9.55;;;;;;;7.30;77.77;99907.56;6077031;23;20018;-86
2022/11/09 04:28:17;;;;;;;20.33;9.55;;;;;;;7.93;77.88;100018.44;6085271;23;20077;-85
2022/11/09 04:30:44;;;;;;;17.40;8.63;;;;;;;7.25;77.55;99904.09;6062495;23;20018;-84
2022/11/09 04:33:10;;;;;;;16.95;9.23;;;;;;;7.65;77.59;99961.28;6114944;23;20029;-86
2022/11/09 04:35:35;;;;;;;19.58;9.52;;;;;;;6.91;77.59;99841.75;6077932;23;20025;-85
2022/11/09 04:38:05;;;;;;;17.65;9.27;;;;;;;7.98;77.97;100008.09;6079578;23;20029;-86
2022/11/09 04:40:33;;;;;;;18.98;9.73;;;;;;;7.55;77.50;99918.06;6077972;23;20022;-85
2022/11/09 04:43:01;;;;;;;17.45;9.00;;;;;;;7.58;77.78;99907.72;6077878;23;20022;-87
2022/11/09 04:45:28;;;;;;;19.70;9.65;;;;;;;7.97;77.85;99980.44;6075870;23;20022;-86
2022/11/09 04:47:58;;;;;;;21.45;9.13;;;;;;;7.66;77.47;99912.94;6059790;23;20084;-82
2022/11/09 04:50:40;;;;;;;20.40;9.35;;;;;;;7.43;77.61;99884.34;6083338;23;20014;-84
2022/11/09 04:53:15;;;;;;;21.92;9.20;;;;;;;8.35;77.44;100018.63;6079457;23;20014;-86
2022/11/09 04:55:44;;;;;;;18.95;10.30;;;;;;;7.23;77.28;99829.00;6061951;23;20033;-85
2022/11/09 04:58:13;;;;;;;20.77;9.73;;;;;;;8.03;77.34;99957.16;6080992;23;20442;-87
2022/11/09 05:00:39;;;;;;;17.65;9.00;;;;;;;8.31;77.20;99998.72;6075488;23;20148;-85
2022/11/09 05:03:07;;;;;;;19.33;9.68;;;;;;;8.44;77.34;100016.06;6051656;23;20098;-84
2022/11/09 05:09:43;;;;;;;18.88;8.73;;;;;;;7.95;77.35;99956.25;5932071;24;20120;-85
2022/11/09 05:12:32;;;;;;;17.63;9.07;;;;;;;8.39;77.04;100046.31;5902509;24;20017;-83
2022/11/09 05:14:59;;;;;;;18.20;9.15;;;;;;;7.62;77.04;99911.19;5936286;23;20531;-81
2022/11/09 05:17:28;;;;;;;19.60;9.27;;;;;;;7.89;77.01;99958.81;5983423;24;20389;-86
2022/11/09 05:20:25;;;;;;;20.00;9.82;;;;;;;8.38;77.00;100033.34;5985479;24;20026;-87
2022/11/09 05:27:00;;;;;;;20.73;9.30;;;;;;;7.75;76.89;99922.47;6037929;23;20026;-87
2022/11/09 05:29:40;;;;;;;21.92;9.63;;;;;;;8.32;76.90;100018.59;6097653;23;20018;-85
2022/11/09 05:49:45;;;;;;;17.40;8.63;;;;;;;8.05;76.86;99931.25;5784125;24;20092;-85
2022/11/09 05:52:33;;;;;;;15.85;8.00;;;;;;;7.69;76.58;99861.16;5913797;24;20591;-84
2022/11/09 05:55:06;;;;;;;17.83;8.20;;;;;;;7.99;76.87;99911.34;5952011;23;20022;-86
2022/11/09 05:57:35;;;;;;;18.08;8.80;;;;;;;8.25;76.65;99946.88;6064668;23;20022;-86
2022/11/09 06:00:13;;;;;;;17.77;8.68;;;;;;;8.60;76.43;99995.38;6046012;23;20022;-82
2022/11/09 06:06:35;;;;;;;15.82;8.75;;;;;;;8.39;76.83;99936.50;6085967;23;20097;-87
2022/11/09 06:12:37;;;;;;;15.15;8.43;;;;;;;8.81;76.52;99915.84;6091403;23;20010;-86
2022/11/09 06:15:05;;;;;;;13.70;8.45;;;;;;;9.21;76.39;99962.56;6051018;23;20025;-87
2022/11/09 06:17:31;;;;;;;16.05;7.88;;;;;;;9.51;76.03;99999.75;6049318;23;20014;-86
2022/11/09 06:19:57;;;;;;;14.73;7.88;;;;;;;9.34;76.12;99969.50;6088886;23;20065;-85
2022/11/09 06:22:32;;;;;;;18.08;8.00;;;;;;;9.54;75.67;99997.16;6056770;23;20473;-84
2022/11/09 06:24:59;;;;;;;15.98;7.97;;;;;;;8.86;75.36;99901.16;6058263;23;20019;-84
2022/11/09 06:27:28;;;;;;;15.35;8.15;;;;;;;8.76;75.46;99886.44;6055397;23;20018;-84
2022/11/09 06:29:57;;;;;;;13.73;7.78;;;;;;;9.31;75.63;99992.84;6035227;23;20026;-81
2022/11/09 06:32:23;;;;;;;17.30;7.82;;;;;;;9.53;75.17;100050.00;6053739;23;20073;-86
2022/11/09 06:38:55;;;;;;;15.98;7.70;;;;;;;8.50;75.01;99900.25;6019359;23;20031;-86
2022/11/09 06:41:22;;;;;;;17.10;8.52;;;;;;;9.00;75.39;99982.47;6052200;23;20025;-83
2022/11/09 06:43:48;;;;;;;15.55;7.57;;;;;;;9.05;75.33;99998.03;6102481;23;20022;-87
2022/11/09 06:46:17;;;;;;;14.20;8.00;;;;;;;8.86;75.33;99943.53;6081511;23;20028;-85
2022/11/09 06:48:43;;;;;;;14.98;8.13;;;;;;;9.12;75.61;99986.78;6078058;23;20018;-82
2022/11/09 06:51:11;;;;;;;13.68;7.68;;;;;;;8.79;75.20;99935.75;6101003;23;20018;-85
2022/11/09 06:53:40;;;;;;;13.73;7.65;;;;;;;9.14;75.09;99985.06;6077899;23;20022;-86
2022/11/09 06:56:07;;;;;;;16.52;7.82;;;;;;;8.42;75.16;99877.75;6079037;23;20010;-84
2022/11/09 06:58:34;;;;;;;15.27;7.35;;;;;;;8.86;74.91;99979.84;6076192;23;20022;-82
2022/11/09 07:01:15;;;;;;;14.07;7.70;;;;;;;9.06;74.91;99991.97;6075198;23;20046;-82
2022/11/09 07:03:42;;;;;;;14.50;7.07;;;;;;;8.35;74.84;99886.38;6099192;23;20018;-84
2022/11/09 07:06:11;;;;;;;13.85;7.20;;;;;;;8.55;74.85;99934.84;6101373;23;20042;-84
2022/11/09 07:08:37;;;;;;;15.35;7.97;;;;;;;8.83;74.76;99979.00;6082688;23;20018;-82
2022/11/09 07:11:12;;;;;;;16.67;7.78;;;;;;;9.02;75.18;100006.69;6051076;23;20030;-84
2022/11/09 07:13:39;;;;;;;18.98;8.00;;;;;;;9.19;74.96;100030.06;6107278;23;20097;-80
2022/11/09 07:16:08;;;;;;;16.38;8.38;;;;;;;9.27;74.77;100027.47;6052737;23;20014;-83
2022/11/09 07:18:34;;;;;;;15.63;7.75;;;;;;;9.31;75.02;100041.31;6074872;23;20357;-81
2022/11/09 07:21:03;;;;;;;17.60;8.45;;;;;;;8.95;74.62;100002.34;6075948;23;20022;-83
2022/11/09 07:23:29;;;;;;;19.38;7.97;;;;;;;8.69;75.11;99972.06;6103443;23;20130;-83
2022/11/09 07:25:58;;;;;;;15.00;7.75;;;;;;;8.66;75.28;99953.91;6099968;23;20018;-83
2022/11/09 07:28:27;;;;;;;13.90;7.85;;;;;;;9.12;74.93;100014.50;6074404;23;20022;-83
2022/11/09 07:30:53;;;;;;;16.70;7.50;;;;;;;8.95;75.06;99993.72;6100606;23;20078;-83
2022/11/09 07:34:00;;;;;;;;;;;;;;;;;;;;;
2022/11/09 07:37:03;;;;;;;16.88;8.07;;;;;;;9.29;75.20;100025.75;6088467;23;20023;-83
2022/11/09 07:39:46;;;;;;;18.90;8.82;;;;;;;8.60;75.17;99922.75;6049604;23;20369;-84
2022/11/09 07:42:28;;;;;;;14.18;8.38;;;;;;;8.59;75.13;99895.09;6083998;23;20018;-83
2022/11/09 07:45:29;;;;;;;13.98;7.72;;;;;;;9.90;75.09;100114.91;6081852;23;20015;-84
2022/11/09 07:58:11;;;;;;;15.68;7.97;;;;;;;9.93;74.71;100111.47;5964735;24;20022;-85
2022/11/09 08:01:41;;;;;;;15.85;8.45;;;;;;;9.00;74.38;99972.09;6040561;23;20018;-82
2022/11/09 08:04:55;;;;;;;18.20;9.00;;;;;;;8.72;74.22;99937.47;6093293;23;20018;-84
2022/11/09 08:16:56;;;;;;;17.90;8.90;;;;;;;9.90;74.22;100116.66;6106875;23;20054;31
2022/11/09 08:19:33;;;;;;;;;;;;;;;;;;;;;
2022/11/09 08:22:44;;;;;;;17.42;8.52;;;;;;;9.88;74.43;100118.41;6057715;23;20014;-87
2022/11/09 08:26:24;;;;;;;16.30;8.35;;;;;;;9.91;74.43;100108.84;6059974;23;20019;-85
2022/11/09 08:33:37;;;;;;;15.73;8.45;;;;;;;8.86;74.30;99947.88;5930648;24;20025;-84
2022/11/09 08:36:40;;;;;;;18.00;9.10;;;;;;;9.01;74.42;99966.03;5939018;23;20054;-85
2022/11/09 08:40:27;;;;;;;19.90;9.43;;;;;;;9.84;74.26;100135.69;6001381;23;20027;-83
2022/11/09 08:43:04;;;;;;;18.60;9.33;;;;;;;8.81;74.09;99950.47;5996113;23;20022;-84
2022/11/09 08:45:51;;;;;;;17.42;9.80;;;;;;;9.86;74.67;100122.72;6021391;23;20026;-84
2022/11/09 08:48:52;;;;;;;16.15;8.75;;;;;;;9.87;74.69;100129.66;6029965;23;20022;-84
2022/11/09 08:51:30;;;;;;;17.55;9.02;;;;;;;9.86;74.66;100136.56;6067869;23;20052;-82
2022/11/09 08:54:43;;;;;;;18.23;9.68;;;;;;;8.74;74.03;99926.22;6031797;23;20369;-82
2022/11/09 08:57:20;;;;;;;15.82;9.10;;;;;;;9.32;74.47;100017.09;6025948;23;20018;-81
2022/11/09 08:59:55;;;;;;;16.13;8.77;;;;;;;9.68;74.83;100049.13;6072420;23;20098;-82
2022/11/09 09:02:25;;;;;;;14.85;8.38;;;;;;;9.33;74.76;99988.53;6051050;23;20022;-82
2022/11/09 09:05:12;;;;;;;17.02;8.82;;;;;;;10.19;74.38;100115.72;6046881;23;20082;-83
2022/11/09 09:07:39;;;;;;;15.32;8.52;;;;;;;9.17;74.57;99943.53;6049015;23;20022;-81
2022/11/09 09:10:05;;;;;;;14.65;8.70;;;;;;;9.14;74.39;99893.34;6090608;23;20073;-81
2022/11/09 09:12:34;;;;;;;14.40;7.80;;;;;;;9.82;74.44;99984.09;6126337;23;20017;-83
2022/11/09 09:15:00;;;;;;;14.82;7.43;;;;;;;10.15;74.22;100029.06;6100857;23;20061;-81
2022/11/09 09:17:38;;;;;;;13.73;7.43;;;;;;;10.61;74.05;100097.44;6127666;23;20341;-82
2022/11/09 09:20:06;;;;;;;13.27;7.80;;;;;;;10.44;74.09;100068.88;6127189;23;20460;-82
2022/11/09 09:22:32;;;;;;;13.13;7.03;;;;;;;10.45;73.71;100076.69;6101473;23;20149;-82
2022/11/09 09:24:58;;;;;;;11.85;6.13;;;;;;;10.60;73.52;100099.16;6101200;23;20025;-82
2022/11/09 09:27:46;;;;;;;12.10;7.00;;;;;;;10.30;73.59;100068.88;6101975;23;20052;-85
2022/11/09 09:30:29;;;;;;;13.35;7.53;;;;;;;10.18;73.54;100061.97;6127625;23;20037;-83
2022/11/09 09:44:51;;;;;;;14.25;7.20;;;;;;;10.39;73.37;100097.50;5933992;24;20017;-85
2022/11/09 09:52:58;;;;;;;14.93;8.05;;;;;;;9.41;73.45;99959.06;5923097;24;20024;-83
2022/11/09 09:55:49;;;;;;;17.60;9.45;;;;;;;10.02;73.42;100071.59;5952695;24;20016;-83
2022/11/09 09:58:38;;;;;;;16.38;8.63;;;;;;;10.21;73.49;100101.88;5963602;24;20021;-82
2022/11/09 10:01:31;;;;;;;;;;;;;;;;;;;;;
2022/11/09 10:04:25;;;;;;;18.48;8.50;;;;;;;9.56;73.79;99990.25;5981519;23;20019;-83
2022/11/09 10:07:19;;;;;;;16.90;8.52;;;;;;;10.30;73.89;100100.97;6016501;23;20014;-82
2022/11/09 10:10:22;;;;;;;16.95;9.23;;;;;;;10.28;73.78;100101.81;6088645;23;20018;-82
2022/11/09 10:13:36;;;;;;;15.32;7.88;;;;;;;10.22;73.41;100106.19;6092216;23;20024;-82
2022/11/09 10:16:43;;;;;;;18.45;9.07;;;;;;;10.19;73.76;100102.72;6063382;23;20026;-83
2022/11/09 10:19:38;;;;;;;17.42;8.52;;;;;;;9.01;73.84;99929.69;6106061;23;20041;-82
2022/11/09 10:22:38;;;;;;;15.88;9.10;;;;;;;9.76;73.98;100036.97;6065969;23;20125;-83
2022/11/09 10:25:45;;;;;;;17.33;8.60;;;;;;;10.16;73.69;100114.00;6055731;23;20026;-84
2022/11/09 10:28:38;;;;;;;18.60;8.98;;;;;;;10.10;73.37;100132.22;6102044;23;20097;-81
2022/11/09 10:31:40;;;;;;;16.27;9.07;;;;;;;10.06;73.92;100107.09;6126232;23;20472;-81
2022/11/09 10:34:57;;;;;;;19.00;9.35;;;;;;;10.08;74.09;100107.94;6080718;23;20021;-80
2022/11/09 10:37:40;;;;;;;20.35;9.02;;;;;;;9.62;73.93;100026.56;6078056;23;20491;-82
2022/11/09 10:40:40;;;;;;;17.33;8.88;;;;;;;10.14;74.49;100097.53;6054404;23;20025;-84
2022/11/09 10:43:41;;;;;;;15.73;8.77;;;;;;;9.50;74.06;99983.28;6079880;23;20017;-81
2022/11/09 10:56:42;;;;;;;15.30;7.72;;;;;;;10.14;74.67;100088.88;5910285;24;20016;-81
2022/11/09 11:05:04;;;;;;;;;;;;;;;;;;;;;
2022/11/09 11:16:51;;;;;;;16.40;8.27;;;;;;;10.01;74.61;100096.69;6006886;23;20014;-81
2022/11/09 11:20:22;;;;;;;;;;;;;;;;;;;;;
2022/11/09 11:24:19;;;;;;;17.80;8.32;;;;;;;10.08;74.65;100102.75;5940779;23;20027;-84
2022/11/09 11:31:41;;;;;;;14.50;7.78;;;;;;;9.61;74.10;100021.41;6119281;23;20010;-82
2022/11/09 11:34:31;;;;;;;13.43;8.07;;;;;;;10.12;74.71;100116.63;6084518;23;20505;-85
2022/11/09 11:38:05;;;;;;;14.25;7.85;;;;;;;10.07;74.56;100098.41;6102807;23;20097;-84
2022/11/09 12:08:02;;;;;;;15.82;8.43;;;;;;;10.05;74.73;100101.03;5830164;24;20038;-84
2022/11/09 12:11:28;;;;;;;11.15;7.03;;;;;;;9.58;74.73;100036.97;5919755;23;20019;-83
2022/11/09 12:15:12;;;;;;;16.30;7.75;;;;;;;8.88;74.80;99925.38;6101988;23;20024;-82
2022/11/09 12:23:29;;;;;;;14.57;8.15;;;;;;;10.04;75.18;100103.66;5962524;24;20426;-84
2022/11/09 12:31:34;;;;;;;13.57;7.10;;;;;;;10.08;75.07;100100.16;6007272;23;20024;-87
2022/11/09 12:34:55;;;;;;;12.52;7.45;;;;;;;10.10;75.23;100106.22;6011442;23;20019;-83
2022/11/09 12:38:01;;;;;;;11.65;6.68;;;;;;;10.05;75.45;100120.94;6001398;23;20024;-83
2022/11/09 12:41:15;;;;;;;12.77;7.07;;;;;;;9.93;75.73;100086.31;6104854;23;20025;-84
2022/11/09 12:44:58;;;;;;;;;;;;;;;;;;;;;
2022/11/09 12:48:16;;;;;;;12.18;7.10;;;;;;;9.13;74.87;99970.34;6126802;23;20014;-82
2022/11/09 12:51:33;;;;;;;10.18;6.03;;;;;;;9.31;75.46;99994.56;6105768;23;20448;-83
2022/11/09 13:03:31;;;;;;;13.07;6.57;;;;;;;9.94;75.35;100081.97;5978614;23;20050;-85
2022/11/09 13:07:25;;;;;;;10.95;6.50;;;;;;;10.07;75.44;100114.91;6018747;23;20034;-84
2022/11/09 13:10:35;;;;;;;15.82;7.50;;;;;;;8.93;75.17;99954.78;6036272;23;20033;-85
2022/11/09 13:14:00;;;;;;;11.20;6.95;;;;;;;10.05;75.66;100123.53;6065348;23;20018;-83
2022/11/09 13:26:40;;;;;;;;;;;;;;;;;;;;;
2022/11/09 13:30:56;;;;;;;11.95;6.28;;;;;;;10.18;75.76;100120.06;6027699;23;20055;-83
2022/11/09 13:34:39;;;;;;;10.32;6.30;;;;;;;10.22;75.48;100121.81;6102276;23;20029;-79
2022/11/09 13:37:48;;;;;;;10.77;6.70;;;;;;;10.17;75.24;100122.66;6119531;23;20019;-82
2022/11/09 13:40:38;;;;;;;10.10;6.70;;;;;;;9.60;75.15;100043.03;6073154;23;20026;-79
2022/11/09 13:43:42;;;;;;;11.77;6.72;;;;;;;9.74;75.43;100069.88;6088679;23;20018;-82
2022/11/09 13:46:35;;;;;;;15.15;7.22;;;;;;;10.07;75.55;100147.81;6086749;23;20019;-80
2022/11/09 13:53:51;;;;;;;13.30;7.57;;;;;;;9.26;75.27;100020.56;6022644;23;20034;-82
2022/11/09 13:56:53;;;;;;;12.95;7.65;;;;;;;10.04;74.89;100137.44;6090475;23;20046;-80
2022/11/09 14:00:20;;;;;;;;;;;;;;;;;;;;;
2022/11/09 14:03:29;;;;;;;15.32;8.43;;;;;;;9.37;75.66;100030.09;6098782;23;20009;-82
2022/11/09 14:06:33;;;;;;;15.18;7.97;;;;;;;9.57;75.31;100080.31;6091062;23;20025;-82
2022/11/09 14:09:42;;;;;;;16.20;8.15;;;;;;;8.94;75.29;99973.81;6070427;23;20066;-84
2022/11/09 14:17:45;;;;;;;16.55;8.85;;;;;;;10.00;75.63;100149.56;6113452;23;20030;-81
2022/11/09 14:21:51;;;;;;;15.13;8.57;;;;;;;10.03;75.50;100146.97;6053056;23;20309;-84
2022/11/09 14:24:55;;;;;;;16.05;8.75;;;;;;;10.01;75.62;100153.03;6093408;23;20021;-82
2022/11/09 14:27:56;;;;;;;17.05;9.18;;;;;;;9.94;75.91;100127.03;6057261;23;20018;-81
2022/11/09 14:30:44;;;;;;;16.40;9.32;;;;;;;9.64;75.38;100092.41;6091204;23;20046;-83
2022/11/09 14:33:33;;;;;;;15.73;8.70;;;;;;;9.03;75.33;99979.03;6080231;23;20471;-79
2022/11/09 14:37:11;;;;;;;20.58;10.02;;;;;;;9.11;75.65;99997.19;5970466;24;20004;-81
2022/11/09 14:40:51;;;;;;;;;;;;;;;;;;;;;
2022/11/09 14:44:38;;;;;;;17.73;9.20;;;;;;;8.94;75.91;99958.25;5965123;24;20069;-81
2022/11/09 14:51:57;;;;;;;;;;;;;;;;;;;;;
2022/11/09 14:55:01;;;;;;;16.40;8.60;;;;;;;10.03;75.77;100133.13;5991674;24;20034;-83
2022/11/09 14:57:48;;;;;;;17.88;9.07;;;;;;;10.17;75.96;100151.25;6059255;23;20018;-82
2022/11/09 15:00:34;;;;;;;18.05;9.88;;;;;;;10.10;75.81;100142.63;6084086;23;20026;-82
2022/11/09 15:03:35;;;;;;;19.42;9.65;;;;;;;9.46;75.57;100020.56;6086576;23;20056;-81
2022/11/09 15:06:20;;;;;;;18.17;9.48;;;;;;;10.02;75.91;100123.59;6103143;23;20014;-83
2022/11/09 15:09:18;;;;;;;;;;;;;;;;;;;;;
2022/11/09 15:12:46;;;;;;;22.23;10.38;;;;;;;10.17;75.51;100149.56;6102954;23;20026;-82
2022/11/09 15:15:37;;;;;;;20.77;9.98;;;;;;;10.17;75.72;100153.88;6059827;23;20018;-82
2022/11/09 15:18:35;;;;;;;20.77;11.30;;;;;;;10.14;75.34;100139.16;6083290;23;20611;-82
2022/11/09 15:21:27;;;;;;;19.58;10.73;;;;;;;10.14;75.68;100141.75;6064264;23;20055;-83
2022/11/09 15:24:32;;;;;;;20.17;10.23;;;;;;;10.14;75.58;100138.28;6060826;23;20105;-81
2022/11/09 15:32:15;;;;;;;22.50;10.45;;;;;;;10.04;75.74;100153.91;6053741;23;20033;-82
2022/11/09 15:35:15;;;;;;;19.13;10.15;;;;;;;9.36;75.52;100049.97;6086849;23;20018;-84
2022/11/09 15:38:00;;;;;;;21.50;11.00;;;;;;;9.83;75.73;100117.53;6059705;23;20044;-83
2022/11/09 15:40:53;;;;;;;20.05;10.45;;;;;;;10.08;75.45;100146.94;6107323;23;20010;-83
2022/11/09 15:43:38;;;;;;;20.70;10.35;;;;;;;10.05;75.65;100170.34;6064818;23;20026;-81
2022/11/09 15:47:09;;;;;;;23.77;11.25;;;;;;;10.06;75.75;100151.28;6058446;23;20057;-85
2022/11/09 15:50:07;;;;;;;20.23;10.75;;;;;;;8.93;75.97;99967.78;6013034;23;20370;-84
2022/11/09 15:57:29;;;;;;;18.45;9.82;;;;;;;9.85;75.83;100114.03;5979351;23;20112;-82
2022/11/09 16:04:35;;;;;;;17.00;10.10;;;;;;;9.13;75.72;99991.13;6035146;23;20077;-81
2022/11/09 16:07:28;;;;;;;20.00;10.52;;;;;;;10.08;75.68;100140.03;6100923;23;20023;-83
2022/11/09 16:10:13;;;;;;;16.70;9.73;;;;;;;9.18;75.71;100004.09;6061351;23;20101;-82